createdAt,value
2023-05-05T00:00:59.743Z,-0.10
2023-05-05T00:03:27.257Z,0.00
2023-05-05T00:05:54.801Z,0.00
2023-05-05T00:08:22.494Z,0.00
2023-05-05T00:10:50.712Z,0.10
2023-05-05T00:13:18.572Z,0.10
2023-05-05T00:15:47.389Z,0.10
2023-05-05T00:18:16.791Z,0.20
2023-05-05T00:20:47.407Z,0.20
2023-05-05T00:23:19.780Z,0.20
2023-05-05T00:25:46.939Z,0.20
2023-05-05T00:28:16.527Z,0.30
2023-05-05T00:30:43.441Z,0.30
2023-05-05T00:33:10.310Z,0.40
2023-05-05T00:35:37.128Z,0.40
2023-05-05T00:38:05.115Z,0.40
2023-05-05T00:40:31.938Z,0.40
2023-05-05T00:42:59.721Z,0.40
2023-05-05T00:45:26.731Z,0.40
2023-05-05T00:47:58.932Z,0.30
2023-05-05T00:50:29.123Z,0.30
2023-05-05T00:53:06.808Z,0.30
2023-05-05T00:55:34.817Z,0.30
2023-05-05T00:58:03.226Z,0.30
2023-05-05T01:00:30.633Z,0.30
2023-05-05T01:02:58.216Z,0.30
2023-05-05T01:05:27.119Z,0.30
2023-05-05T01:08:18.024Z,0.30
2023-05-05T01:10:52.957Z,0.30
2023-05-05T01:13:37.344Z,0.30
2023-05-05T01:16:09.891Z,0.30
2023-05-05T01:18:49.492Z,0.30
2023-05-05T01:21:27.460Z,0.30
2023-05-05T01:24:11.013Z,0.30
2023-05-05T01:27:00.332Z,0.30
2023-05-05T01:29:48.088Z,0.30
2023-05-05T01:32:17.756Z,0.30
2023-05-05T01:34:53.508Z,0.30
2023-05-05T01:37:27.875Z,0.30
2023-05-05T01:39:59.552Z,0.20
2023-05-05T01:42:29.190Z,0.20
2023-05-05T01:44:56.893Z,0.20
2023-05-05T01:47:24.792Z,0.30
2023-05-05T01:49:52.799Z,0.20
2023-05-05T01:52:20.540Z,0.20
2023-05-05T01:54:50.714Z,0.20
2023-05-05T01:57:18.512Z,0.20
2023-05-05T01:59:45.309Z,0.20
2023-05-05T02:02:14.473Z,0.10
2023-05-05T02:04:44.945Z,0.10
2023-05-05T02:07:12.740Z,0.10
2023-05-05T02:09:40.760Z,0.00
2023-05-05T02:12:08.383Z,0.00
2023-05-05T02:14:36.965Z,0.00
2023-05-05T02:17:04.189Z,0.00
2023-05-05T02:19:36.351Z,-0.10
2023-05-05T02:22:03.326Z,-0.10
2023-05-05T02:24:30.906Z,-0.10
2023-05-05T02:26:59.671Z,-0.20
2023-05-05T02:29:32.669Z,-0.20
2023-05-05T02:32:05.065Z,-0.30
2023-05-05T02:34:36.851Z,-0.30
2023-05-05T02:37:09.856Z,-0.40
2023-05-05T02:39:43.792Z,-0.40
2023-05-05T02:42:18.417Z,-0.40
2023-05-05T02:44:46.289Z,-0.50
2023-05-05T02:47:13.953Z,-0.50
2023-05-05T02:49:40.952Z,-0.50
2023-05-05T02:52:08.435Z,-0.50
2023-05-05T02:54:37.780Z,-0.50
2023-05-05T02:57:16.412Z,-0.50
2023-05-05T02:59:56.633Z,-0.60
2023-05-05T03:02:35.941Z,-0.60
2023-05-05T03:05:11.010Z,-0.60
2023-05-05T03:07:54.126Z,-0.60
2023-05-05T03:10:27.603Z,-0.60
2023-05-05T03:12:58.385Z,-0.70
2023-05-05T03:15:36.015Z,-0.60
2023-05-05T03:18:04.021Z,-0.60
2023-05-05T03:20:31.216Z,-0.60
2023-05-05T03:23:03.233Z,-0.60
2023-05-05T03:25:47.504Z,-0.60
2023-05-05T03:28:27.273Z,-0.60
2023-05-05T03:30:55.066Z,-0.60
2023-05-05T03:33:22.360Z,-0.50
2023-05-05T03:35:49.260Z,-0.50
2023-05-05T03:38:16.674Z,-0.40
2023-05-05T03:40:44.815Z,-0.40
2023-05-05T03:43:14.660Z,-0.40
2023-05-05T03:45:41.557Z,-0.30
2023-05-05T03:48:09.999Z,-0.30
2023-05-05T03:50:38.651Z,-0.30
2023-05-05T03:53:05.522Z,-0.20
2023-05-05T03:55:32.766Z,-0.20
2023-05-05T03:57:59.713Z,-0.20
2023-05-05T04:00:27.545Z,-0.10
2023-05-05T04:02:54.768Z,-0.10
2023-05-05T04:05:23.001Z,0.00
2023-05-05T04:07:50.040Z,0.10
2023-05-05T04:10:17.064Z,0.10
2023-05-05T04:12:44.039Z,0.20
2023-05-05T04:15:11.039Z,0.30
2023-05-05T04:17:38.016Z,0.30
2023-05-05T04:20:06.298Z,0.30
2023-05-05T04:22:33.669Z,0.40
2023-05-05T04:25:01.275Z,0.40
2023-05-05T04:27:29.960Z,0.50
2023-05-05T04:29:58.262Z,0.60
2023-05-05T04:32:25.390Z,0.60
2023-05-05T04:34:52.484Z,0.70
2023-05-05T04:37:19.622Z,0.80
2023-05-05T04:39:46.573Z,0.80
2023-05-05T04:42:14.013Z,0.90
2023-05-05T04:44:41.522Z,1.00
2023-05-05T04:47:08.505Z,1.10
2023-05-05T04:49:35.747Z,1.20
2023-05-05T04:52:02.645Z,1.30
2023-05-05T04:54:29.484Z,1.40
2023-05-05T04:56:56.287Z,1.40
2023-05-05T04:59:23.110Z,1.50
2023-05-05T05:01:49.972Z,1.60
2023-05-05T05:04:18.649Z,1.60
2023-05-05T05:06:46.119Z,1.70
2023-05-05T05:09:13.284Z,1.80
2023-05-05T05:11:40.305Z,1.90
2023-05-05T05:14:07.296Z,1.90
2023-05-05T05:16:34.215Z,2.00
2023-05-05T05:19:01.766Z,2.10
2023-05-05T05:21:29.895Z,2.20
2023-05-05T05:23:56.780Z,2.30
2023-05-05T05:26:24.452Z,2.40
2023-05-05T05:28:51.680Z,2.40
2023-05-05T05:31:18.663Z,2.60
2023-05-05T05:33:46.216Z,2.60
2023-05-05T05:36:14.742Z,2.70
2023-05-05T05:38:41.981Z,2.80
2023-05-05T05:41:09.303Z,2.80
2023-05-05T05:43:37.682Z,2.90
2023-05-05T05:46:07.533Z,3.00
2023-05-05T05:48:36.252Z,3.10
2023-05-05T05:51:03.724Z,3.10
2023-05-05T05:53:30.870Z,3.30
2023-05-05T05:55:57.814Z,3.30
2023-05-05T05:58:24.764Z,3.30
2023-05-05T06:00:51.954Z,3.40
2023-05-05T06:03:19.070Z,3.50
2023-05-05T06:05:48.795Z,3.60
2023-05-05T06:08:15.987Z,3.70
2023-05-05T06:10:48.269Z,3.70
2023-05-05T06:13:18.348Z,3.80
2023-05-05T06:15:48.789Z,3.80
2023-05-05T06:18:16.643Z,3.90
2023-05-05T06:20:43.598Z,3.90
2023-05-05T06:23:12.101Z,4.00
2023-05-05T06:25:43.648Z,4.00
2023-05-05T06:28:10.525Z,4.00
2023-05-05T06:30:37.393Z,4.10
2023-05-05T06:33:04.230Z,4.10
2023-05-05T06:35:31.121Z,4.20
2023-05-05T06:37:57.997Z,4.30
2023-05-05T06:40:24.796Z,4.30
2023-05-05T06:42:51.767Z,4.30
2023-05-05T06:45:23.488Z,4.40
2023-05-05T06:47:50.405Z,4.40
2023-05-05T06:50:17.224Z,4.40
2023-05-05T06:52:44.109Z,4.50
2023-05-05T06:55:11.036Z,4.50
2023-05-05T06:57:37.863Z,4.50
2023-05-05T07:00:06.472Z,4.60
2023-05-05T07:02:33.887Z,4.70
2023-05-05T07:05:00.764Z,4.70
2023-05-05T07:07:27.697Z,4.80
2023-05-05T07:09:54.568Z,4.80
2023-05-05T07:12:21.910Z,4.80
2023-05-05T07:14:48.814Z,4.90
2023-05-05T07:17:16.080Z,5.00
2023-05-05T07:19:43.180Z,5.00
2023-05-05T07:22:10.015Z,5.00
2023-05-05T07:24:36.836Z,5.10
2023-05-05T07:27:03.747Z,5.20
2023-05-05T07:29:30.913Z,5.30
2023-05-05T07:31:57.725Z,5.30
2023-05-05T07:34:24.637Z,5.40
2023-05-05T07:36:51.492Z,5.40
2023-05-05T07:39:19.480Z,5.40
2023-05-05T07:41:46.417Z,5.50
2023-05-05T07:44:13.201Z,5.50
2023-05-05T07:46:40.035Z,5.40
2023-05-05T07:49:06.872Z,5.50
2023-05-05T07:51:34.584Z,5.50
2023-05-05T07:54:01.872Z,5.60
2023-05-05T07:56:28.753Z,5.60
2023-05-05T07:58:56.024Z,5.60
2023-05-05T08:01:23.032Z,5.70
2023-05-05T08:03:49.952Z,5.70
2023-05-05T08:06:17.970Z,5.80
2023-05-05T08:08:44.822Z,5.90
2023-05-05T08:11:11.632Z,6.00
2023-05-05T08:13:39.218Z,6.00
2023-05-05T08:16:06.541Z,5.80
2023-05-05T08:18:34.501Z,5.60
2023-05-05T08:21:01.323Z,5.60
2023-05-05T08:23:28.122Z,5.80
2023-05-05T08:25:55.073Z,5.80
2023-05-05T08:28:23.033Z,5.60
2023-05-05T08:30:50.792Z,5.50
2023-05-05T08:33:17.934Z,5.40
2023-05-05T08:35:45.496Z,5.40
2023-05-05T08:38:12.609Z,5.50
2023-05-05T08:40:40.660Z,5.60
2023-05-05T08:43:07.718Z,5.80
2023-05-05T08:45:34.596Z,5.90
2023-05-05T08:48:04.137Z,5.70
2023-05-05T08:50:32.096Z,5.60
2023-05-05T08:53:04.673Z,5.50
2023-05-05T08:55:35.440Z,5.40
2023-05-05T08:58:05.801Z,5.30
2023-05-05T09:00:34.361Z,5.20
2023-05-05T09:03:02.077Z,5.10
2023-05-05T09:05:29.043Z,4.90
2023-05-05T09:07:56.022Z,5.10
2023-05-05T09:10:23.058Z,5.30
2023-05-05T09:12:51.505Z,5.50
2023-05-05T09:18:03.734Z,5.70
2023-05-05T09:20:35.346Z,5.70
2023-05-05T09:23:19.647Z,5.60
2023-05-05T09:26:08.051Z,5.70
2023-05-05T09:28:34.942Z,5.60
2023-05-05T09:31:16.008Z,5.40
2023-05-05T09:33:43.674Z,5.30
2023-05-05T09:36:11.607Z,5.20
2023-05-05T09:38:38.487Z,5.20
2023-05-05T09:41:06.560Z,5.20
2023-05-05T09:43:51.894Z,5.30
2023-05-05T09:46:19.039Z,5.50
2023-05-05T09:48:45.948Z,5.50
2023-05-05T09:51:12.750Z,5.40
2023-05-05T09:53:41.548Z,5.30
2023-05-05T09:56:08.888Z,5.30
2023-05-05T09:58:36.053Z,5.30
2023-05-05T10:01:02.923Z,5.30
2023-05-05T10:03:29.762Z,5.40
2023-05-05T10:05:59.025Z,5.70
2023-05-05T10:08:30.886Z,5.80
2023-05-05T10:11:05.022Z,5.90
2023-05-05T10:13:37.108Z,5.80
2023-05-05T10:16:04.998Z,5.80
2023-05-05T10:18:32.455Z,5.90
2023-05-05T10:21:04.314Z,6.00
2023-05-05T10:23:55.303Z,6.20
2023-05-05T10:26:23.222Z,6.50
2023-05-05T10:28:56.759Z,6.30
2023-05-05T10:31:33.592Z,6.20
2023-05-05T10:34:04.192Z,6.10
2023-05-05T10:36:31.890Z,6.10
2023-05-05T10:39:00.613Z,6.00
2023-05-05T10:41:28.593Z,6.10
2023-05-05T10:44:00.436Z,5.90
2023-05-05T10:46:29.105Z,5.80
2023-05-05T10:49:33.932Z,5.90
2023-05-05T10:52:08.914Z,6.00
2023-05-05T10:54:46.542Z,6.00
2023-05-05T10:57:16.642Z,5.90
2023-05-05T10:59:43.598Z,5.90
2023-05-05T11:02:21.121Z,6.10
2023-05-05T11:05:23.671Z,6.20
2023-05-05T11:07:51.771Z,6.10
2023-05-05T11:10:20.670Z,5.90
2023-05-05T11:13:00.108Z,5.90
2023-05-05T11:15:30.241Z,6.10
2023-05-05T11:17:58.830Z,6.30
2023-05-05T11:20:40.646Z,6.60
2023-05-05T11:23:07.683Z,6.90
2023-05-05T11:25:40.518Z,7.00
2023-05-05T11:28:16.377Z,6.90
2023-05-05T11:30:55.782Z,6.90
2023-05-05T11:33:33.390Z,6.60
2023-05-05T11:36:01.842Z,6.50
2023-05-05T11:38:36.496Z,6.40
2023-05-05T11:41:27.189Z,6.30
2023-05-05T11:44:10.470Z,6.10
2023-05-05T11:46:37.875Z,6.00
2023-05-05T11:49:04.740Z,6.00
2023-05-05T11:51:32.105Z,6.10
2023-05-05T11:53:59.327Z,6.30
2023-05-05T11:56:26.349Z,6.10
2023-05-05T11:59:10.363Z,5.90
2023-05-05T12:01:43.297Z,5.80
2023-05-05T12:04:16.592Z,5.70
2023-05-05T12:06:44.490Z,5.80
2023-05-05T12:09:20.644Z,6.00
2023-05-05T12:11:55.185Z,6.20
2023-05-05T12:14:23.849Z,6.20
2023-05-05T12:17:03.585Z,6.30
2023-05-05T12:19:33.321Z,6.30
2023-05-05T12:22:04.561Z,6.20
2023-05-05T12:24:31.636Z,6.40
2023-05-05T12:27:11.196Z,6.70
2023-05-05T12:29:38.389Z,6.60
2023-05-05T12:32:05.593Z,6.60
2023-05-05T12:34:32.869Z,6.30
2023-05-05T12:37:01.131Z,6.50
2023-05-05T12:39:37.304Z,6.60
2023-05-05T12:42:05.012Z,6.60
2023-05-05T12:44:38.889Z,6.60
2023-05-05T12:47:06.202Z,6.40
2023-05-05T12:49:45.272Z,6.50
2023-05-05T12:52:12.142Z,6.60
2023-05-05T12:54:59.225Z,6.50
2023-05-05T12:57:26.620Z,6.50
2023-05-05T12:59:53.714Z,6.70
2023-05-05T13:02:21.156Z,7.10
2023-05-05T13:04:57.282Z,7.20
2023-05-05T13:07:24.118Z,7.20
2023-05-05T13:09:51.519Z,7.00
2023-05-05T13:12:19.101Z,6.60
2023-05-05T13:14:46.778Z,6.30
2023-05-05T13:17:14.617Z,6.30
2023-05-05T13:19:46.543Z,6.70
2023-05-05T13:22:14.122Z,7.00
2023-05-05T13:24:51.731Z,6.90
2023-05-05T13:27:19.489Z,6.70
2023-05-05T13:29:46.714Z,6.50
2023-05-05T13:32:13.613Z,6.60
2023-05-05T13:34:40.529Z,6.50
2023-05-05T13:37:07.373Z,6.60
2023-05-05T13:39:34.163Z,6.90
2023-05-05T13:42:01.037Z,7.00
2023-05-05T13:44:27.831Z,7.10
2023-05-05T13:46:54.817Z,6.80
2023-05-05T13:49:21.683Z,6.50
2023-05-05T13:51:48.592Z,6.40
2023-05-05T13:54:15.437Z,6.50
2023-05-05T13:56:42.329Z,6.60
2023-05-05T13:59:09.205Z,6.90
2023-05-05T14:01:36.091Z,7.40
2023-05-05T14:04:05.368Z,7.60
2023-05-05T14:06:33.685Z,7.60
2023-05-05T14:09:00.653Z,7.60
2023-05-05T14:11:27.557Z,7.60
2023-05-05T14:13:54.358Z,7.50
2023-05-05T14:16:21.314Z,7.50
2023-05-05T14:18:48.249Z,7.90
2023-05-05T14:21:15.211Z,8.20
2023-05-05T14:23:42.037Z,8.60
2023-05-05T14:26:09.037Z,9.10
2023-05-05T14:28:36.181Z,9.20
2023-05-05T14:31:03.081Z,8.90
2023-05-05T14:33:29.903Z,8.80
2023-05-05T14:35:56.917Z,8.50
2023-05-05T14:38:23.847Z,8.40
2023-05-05T14:40:50.776Z,8.40
2023-05-05T14:43:17.640Z,8.70
2023-05-05T14:45:44.491Z,9.20
2023-05-05T14:48:11.524Z,9.60
2023-05-05T14:50:39.948Z,9.70
2023-05-05T14:53:06.817Z,9.50
2023-05-05T14:55:33.763Z,9.20
2023-05-05T14:58:00.793Z,8.90
2023-05-05T15:00:27.905Z,8.80
2023-05-05T15:02:54.870Z,9.00
2023-05-05T15:05:21.759Z,9.50
2023-05-05T15:07:48.588Z,10.00
2023-05-05T15:10:15.764Z,10.30
2023-05-05T15:12:43.093Z,10.80
2023-05-05T15:15:10.726Z,11.00
2023-05-05T15:17:38.902Z,11.30
2023-05-05T15:20:06.802Z,11.20
2023-05-05T15:22:33.913Z,11.20
2023-05-05T15:25:01.352Z,11.40
2023-05-05T15:27:28.337Z,11.40
2023-05-05T15:29:55.377Z,11.60
2023-05-05T15:32:22.342Z,11.90
2023-05-05T15:34:50.516Z,11.70
2023-05-05T15:37:17.485Z,11.40
2023-05-05T15:39:44.354Z,11.30
2023-05-05T15:42:11.248Z,11.40
2023-05-05T15:44:38.088Z,11.70
2023-05-05T15:47:05.443Z,11.80
2023-05-05T15:49:32.336Z,11.30
2023-05-05T15:51:59.156Z,11.30
2023-05-05T15:54:26.020Z,11.70
2023-05-05T15:56:52.920Z,12.20
2023-05-05T15:59:19.750Z,12.20
2023-05-05T16:01:47.464Z,12.10
2023-05-05T16:04:14.465Z,12.00
2023-05-05T16:06:41.435Z,11.60
2023-05-05T16:09:08.323Z,11.40
2023-05-05T16:11:37.091Z,11.70
2023-05-05T16:14:04.260Z,12.10
2023-05-05T16:16:31.220Z,12.20
2023-05-05T16:18:58.128Z,12.30
2023-05-05T16:21:25.611Z,12.40
2023-05-05T16:23:52.569Z,12.40
2023-05-05T16:26:19.743Z,12.40
2023-05-05T16:28:46.567Z,12.50
2023-05-05T16:31:13.641Z,12.70
2023-05-05T16:33:43.834Z,12.50
2023-05-05T16:36:12.117Z,12.50
2023-05-05T16:38:39.977Z,12.80
2023-05-05T16:41:07.242Z,12.80
2023-05-05T16:43:34.843Z,12.50
2023-05-05T16:46:01.889Z,12.40
2023-05-05T16:48:28.776Z,12.50
2023-05-05T16:50:58.797Z,12.70
2023-05-05T16:53:25.988Z,12.40
2023-05-05T16:55:53.828Z,12.40
2023-05-05T16:58:22.480Z,12.40
2023-05-05T17:00:50.510Z,12.10
2023-05-05T17:03:20.785Z,12.20
2023-05-05T17:05:50.163Z,12.10
2023-05-05T17:08:17.456Z,12.20
2023-05-05T17:10:45.468Z,12.40
2023-05-05T17:13:13.304Z,12.40
2023-05-05T17:15:40.974Z,12.40
2023-05-05T17:18:08.475Z,12.30
2023-05-05T17:20:36.323Z,12.20
2023-05-05T17:23:03.319Z,12.10
2023-05-05T17:25:30.191Z,12.00
2023-05-05T17:27:57.497Z,12.20
2023-05-05T17:30:24.477Z,12.10
2023-05-05T17:32:51.302Z,11.90
2023-05-05T17:35:18.565Z,11.40
2023-05-05T17:37:45.734Z,10.80
2023-05-05T17:40:12.711Z,10.20
2023-05-05T17:42:39.736Z,9.80
2023-05-05T17:45:07.897Z,9.60
2023-05-05T17:47:35.389Z,9.20
2023-05-05T17:50:02.908Z,9.00
2023-05-05T17:52:29.780Z,8.70
2023-05-05T17:54:56.916Z,8.40
2023-05-05T17:57:23.907Z,8.00
2023-05-05T17:59:51.957Z,7.70
2023-05-05T18:02:19.329Z,7.60
2023-05-05T18:04:46.536Z,7.30
2023-05-05T18:07:14.681Z,7.30
2023-05-05T18:09:42.202Z,7.20
2023-05-05T18:12:09.278Z,7.30
2023-05-05T18:14:36.249Z,7.40
2023-05-05T18:17:03.168Z,7.40
2023-05-05T18:19:30.279Z,7.30
2023-05-05T18:21:59.846Z,7.20
2023-05-05T18:24:27.549Z,6.90
2023-05-05T18:26:54.457Z,6.70
2023-05-05T18:29:22.181Z,6.30
2023-05-05T18:31:51.905Z,6.00
2023-05-05T18:34:20.530Z,5.70
2023-05-05T18:36:50.135Z,5.50
2023-05-05T18:39:17.785Z,5.20
2023-05-05T18:41:44.594Z,5.10
2023-05-05T18:44:11.573Z,4.90
2023-05-05T18:46:38.558Z,4.70
2023-05-05T18:49:05.514Z,4.70
2023-05-05T18:51:32.323Z,4.50
2023-05-05T18:54:00.848Z,4.40
2023-05-05T18:56:27.788Z,4.20
2023-05-05T18:58:54.631Z,4.10
2023-05-05T19:01:21.672Z,4.00
2023-05-05T19:03:48.673Z,3.90
2023-05-05T19:06:16.324Z,3.80
2023-05-05T19:08:45.117Z,3.70
2023-05-05T19:11:12.536Z,3.60
2023-05-05T19:13:39.885Z,3.50
2023-05-05T19:16:07.351Z,3.40
2023-05-05T19:18:34.396Z,3.30
2023-05-05T19:21:01.474Z,3.20
2023-05-05T19:23:28.284Z,3.20
2023-05-05T19:25:55.116Z,3.10
2023-05-05T19:28:21.930Z,3.00
2023-05-05T19:30:48.841Z,2.90
2023-05-05T19:33:16.283Z,2.80
2023-05-05T19:35:43.952Z,2.70
2023-05-05T19:38:10.906Z,2.60
2023-05-05T19:40:39.277Z,2.50
2023-05-05T19:43:06.159Z,2.50
2023-05-05T19:45:33.892Z,2.40
2023-05-05T19:48:01.814Z,2.30
2023-05-05T19:50:30.366Z,2.30
2023-05-05T19:52:57.800Z,2.20
2023-05-05T19:55:24.856Z,2.10
2023-05-05T19:57:51.786Z,2.10
2023-05-05T20:00:19.705Z,2.00
2023-05-05T20:02:48.656Z,2.00
2023-05-05T20:05:17.267Z,1.90
2023-05-05T20:07:46.273Z,1.80
2023-05-05T20:10:13.445Z,1.80
2023-05-05T20:12:42.525Z,1.70
2023-05-05T20:15:10.980Z,1.70
2023-05-05T20:17:37.841Z,1.60
2023-05-05T20:20:05.178Z,1.50
2023-05-05T20:22:32.021Z,1.50
2023-05-05T20:24:58.873Z,1.50
2023-05-05T20:27:26.778Z,1.40
2023-05-05T20:29:55.419Z,1.40
2023-05-05T20:32:22.231Z,1.30
2023-05-05T20:34:49.076Z,1.20
2023-05-05T20:37:15.906Z,1.20
2023-05-05T20:39:43.735Z,1.10
2023-05-05T20:42:10.984Z,1.10
2023-05-05T20:44:38.370Z,1.00
2023-05-05T20:47:05.665Z,1.00
2023-05-05T20:49:32.811Z,0.90
2023-05-05T20:51:59.595Z,0.90
2023-05-05T20:54:31.807Z,0.90
2023-05-05T20:56:58.737Z,0.80
2023-05-05T20:59:27.976Z,0.80
2023-05-05T21:01:57.879Z,0.80
2023-05-05T21:04:24.925Z,0.70
2023-05-05T21:06:51.800Z,0.70
2023-05-05T21:09:19.699Z,0.60
2023-05-05T21:11:46.680Z,0.60
2023-05-05T21:14:13.492Z,0.60
2023-05-05T21:16:40.493Z,0.60
2023-05-05T21:19:07.500Z,0.50
2023-05-05T21:21:34.354Z,0.50
2023-05-05T21:24:01.267Z,0.50
2023-05-05T21:26:28.723Z,0.40
2023-05-05T21:28:55.663Z,0.40
2023-05-05T21:31:22.801Z,0.40
2023-05-05T21:33:49.824Z,0.30
2023-05-05T21:36:17.686Z,0.30
2023-05-05T21:38:44.712Z,0.30
2023-05-05T21:41:11.722Z,0.20
2023-05-05T21:43:38.641Z,0.20
2023-05-05T21:46:05.737Z,0.20
2023-05-05T21:48:32.907Z,0.10
2023-05-05T21:50:59.857Z,0.00
2023-05-05T21:53:26.661Z,0.00
2023-05-05T21:55:53.477Z,0.00
2023-05-05T21:58:20.345Z,0.00
2023-05-05T22:00:50.691Z,-0.10
2023-05-05T22:03:18.068Z,-0.10
2023-05-05T22:05:45.068Z,-0.10
2023-05-05T22:08:11.836Z,-0.10
2023-05-05T22:10:39.467Z,-0.10
2023-05-05T22:13:06.439Z,-0.10
2023-05-05T22:15:45.390Z,-0.10
2023-05-05T22:18:13.753Z,-0.20
2023-05-05T22:20:40.645Z,-0.20
2023-05-05T22:23:07.534Z,-0.20
2023-05-05T22:25:34.343Z,-0.20
2023-05-05T22:28:01.204Z,-0.20
2023-05-05T22:30:28.193Z,-0.30
2023-05-05T22:32:55.223Z,-0.30
2023-05-05T22:35:22.233Z,-0.30
2023-05-05T22:37:49.177Z,-0.30
2023-05-05T22:40:16.143Z,-0.40
2023-05-05T22:42:43.131Z,-0.40
2023-05-05T22:45:10.683Z,-0.40
2023-05-05T22:47:37.793Z,-0.40
2023-05-05T22:50:05.331Z,-0.40
2023-05-05T22:52:32.192Z,-0.50
2023-05-05T22:54:59.080Z,-0.50
2023-05-05T22:57:26.192Z,-0.50
2023-05-05T22:59:52.988Z,-0.60
2023-05-05T23:02:19.876Z,-0.60
2023-05-05T23:04:46.668Z,-0.60
2023-05-05T23:07:13.853Z,-0.60
2023-05-05T23:09:41.122Z,-0.70
2023-05-05T23:12:08.075Z,-0.70
2023-05-05T23:14:35.776Z,-0.70
2023-05-05T23:17:02.734Z,-0.70
2023-05-05T23:19:32.614Z,-0.70
2023-05-05T23:22:00.117Z,-0.70
2023-05-05T23:24:27.828Z,-0.70
2023-05-05T23:26:56.673Z,-0.80
2023-05-05T23:29:23.448Z,-0.80
2023-05-05T23:31:50.328Z,-0.80
2023-05-05T23:34:17.138Z,-0.80
2023-05-05T23:36:44.073Z,-0.80
2023-05-05T23:39:11.094Z,-0.80
2023-05-05T23:41:37.881Z,-0.80
2023-05-05T23:44:04.745Z,-0.90
2023-05-05T23:46:31.649Z,-0.90
2023-05-05T23:48:58.436Z,-0.90
2023-05-05T23:51:25.277Z,-0.90
2023-05-05T23:53:52.111Z,-0.90
2023-05-05T23:56:18.969Z,-1.00
2023-05-05T23:58:45.713Z,-1.00
